Time;durP1;ratioP1;P1;durP2;ratioP2;P2;SDS_P1;SDS_P2;PMS_P1;PMS_P2;Temp;Humidity;BMP_temperature;BMP_pressure;BME280_temperature;BME280_humidity;BME280_pressure;Samples;Min_cycle;Max_cycle;Signal;HPM_P1;HPM_P2
2023/09/16 00:00:38;;;;;;;0.40;0.40;;;;;;;13.25;79.17;99975.34;6248371;22;20049;-85
2023/09/16 00:03:07;;;;;;;0.50;0.50;;;;;;;13.20;79.73;99976.03;6275167;22;20371;-85
2023/09/16 00:05:38;;;;;;;0.40;0.40;;;;;;;13.18;80.18;99978.16;6275327;22;20030;-85
2023/09/16 00:08:06;;;;;;;0.40;0.40;;;;;;;13.19;80.38;99974.38;6275037;22;20030;-84
2023/09/16 00:10:59;;;;;;;0.50;0.50;;;;;;;13.15;81.03;99978.63;6247819;22;20447;-85
2023/09/16 00:13:26;;;;;;;0.40;0.40;;;;;;;13.09;81.67;99979.56;6275400;22;20024;-85
2023/09/16 00:15:54;;;;;;;0.50;0.50;;;;;;;13.08;82.13;99972.50;6274989;22;20443;-84
2023/09/16 00:18:21;;;;;;;0.40;0.40;;;;;;;13.08;82.44;99973.34;6274997;22;20057;-85
2023/09/16 00:20:49;;;;;;;0.50;0.50;;;;;;;13.07;82.60;99979.00;6248037;22;20042;-83
2023/09/16 00:23:16;;;;;;;0.40;0.40;;;;;;;13.04;82.83;99984.88;6274811;22;20039;-84
2023/09/16 00:25:45;;;;;;;0.50;0.50;;;;;;;13.06;83.20;99988.19;6274720;22;20019;-85
2023/09/16 00:28:12;;;;;;;0.40;0.40;;;;;;;12.99;83.29;99983.72;6274005;22;20106;-85
2023/09/16 00:30:45;;;;;;;0.40;0.40;;;;;;;13.02;83.75;99983.25;6274568;22;20102;-85
2023/09/16 00:33:12;;;;;;;0.40;0.40;;;;;;;12.93;84.11;99976.53;6274181;22;20051;-85
2023/09/16 00:35:39;;;;;;;0.50;0.50;;;;;;;12.93;84.89;99986.53;6274483;22;20019;-84
2023/09/16 00:38:08;;;;;;;0.40;0.40;;;;;;;12.88;85.04;99984.53;6247128;22;20111;-85
2023/09/16 00:40:36;;;;;;;0.40;0.40;;;;;;;12.92;85.51;99988.44;6247568;22;20031;-84
2023/09/16 00:43:03;;;;;;;0.40;0.40;;;;;;;12.90;85.71;99993.25;6247887;22;20398;-85
2023/09/16 00:45:33;;;;;;;0.40;0.40;;;;;;;12.84;86.17;99999.63;6275278;22;20047;-84
2023/09/16 00:48:00;;;;;;;0.40;0.40;;;;;;;12.80;86.42;99993.00;6275443;22;20342;-85
2023/09/16 00:50:27;;;;;;;0.40;0.40;;;;;;;12.83;87.15;99991.72;6223286;22;20391;-85
2023/09/16 00:52:57;;;;;;;0.50;0.50;;;;;;;12.82;87.70;99996.31;6274350;22;20023;-84
2023/09/16 00:55:25;;;;;;;0.40;0.40;;;;;;;12.84;87.71;99996.91;6247320;22;20030;-85
2023/09/16 00:57:53;;;;;;;0.50;0.50;;;;;;;12.86;88.09;99991.25;6247731;22;20363;-85
2023/09/16 01:00:26;;;;;;;0.50;0.50;;;;;;;12.87;88.32;99993.72;6248341;22;20020;-84
2023/09/16 01:02:56;;;;;;;0.50;0.50;;;;;;;12.83;88.61;99997.97;6247450;22;20053;-84
2023/09/16 01:05:24;;;;;;;0.50;0.50;;;;;;;12.83;88.78;99997.97;6248111;22;20492;-84
2023/09/16 01:07:52;;;;;;;0.50;0.50;;;;;;;12.85;88.91;99997.72;6247667;22;20031;-84
2023/09/16 01:10:22;;;;;;;0.40;0.40;;;;;;;12.83;89.27;99997.13;6247772;22;20069;-84
2023/09/16 01:12:53;;;;;;;0.50;0.50;;;;;;;12.88;89.11;99995.38;6274481;22;20024;-86
2023/09/16 01:15:22;;;;;;;0.50;0.50;;;;;;;12.91;88.82;100005.75;6247244;22;20525;-85
2023/09/16 01:17:59;;;;;;;0.40;0.40;;;;;;;12.95;88.98;100011.53;6274453;22;20015;-85
2023/09/16 01:20:28;;;;;;;0.50;0.50;;;;;;;12.89;89.03;100005.16;6222789;22;20032;-86
2023/09/16 01:22:57;;;;;;;0.50;0.50;;;;;;;12.83;89.55;100007.97;6274255;22;20022;-86
2023/09/16 01:25:26;;;;;;;0.43;0.43;;;;;;;12.83;89.95;100008.78;6247050;22;20020;-85
2023/09/16 01:27:54;;;;;;;0.50;0.50;;;;;;;12.86;89.92;100008.31;6274176;22;20043;-85
2023/09/16 01:30:27;;;;;;;0.40;0.40;;;;;;;12.84;89.89;100020.44;6274094;22;20113;-86
2023/09/16 01:33:09;;;;;;;0.40;0.40;;;;;;;12.86;90.15;100015.63;6221342;22;20043;-85
2023/09/16 01:35:39;;;;;;;0.40;0.40;;;;;;;12.86;90.05;100024.56;6222149;22;20026;-85
2023/09/16 01:38:08;;;;;;;0.40;0.40;;;;;;;12.85;90.31;100024.81;6273884;22;20024;-85
2023/09/16 01:40:35;;;;;;;0.50;0.50;;;;;;;12.88;90.29;100036.00;6221912;22;20019;-86
2023/09/16 01:43:03;;;;;;;0.40;0.40;;;;;;;12.88;90.52;100036.00;6246920;22;20020;-86
2023/09/16 01:45:41;;;;;;;0.40;0.40;;;;;;;12.89;90.81;100042.28;6247817;22;20042;-86
2023/09/16 01:48:09;;;;;;;0.50;0.50;;;;;;;12.83;91.13;100033.19;6276192;22;20019;-85
2023/09/16 01:50:37;;;;;;;0.40;0.40;;;;;;;12.84;91.67;100036.69;6275583;22;20103;-85
2023/09/16 01:53:07;;;;;;;0.50;0.50;;;;;;;12.84;91.77;100042.97;6273962;22;20023;-85
2023/09/16 01:55:34;;;;;;;0.50;0.50;;;;;;;12.79;92.02;100038.25;6247323;22;20020;-86
2023/09/16 01:58:08;;;;;;;0.40;0.40;;;;;;;12.72;92.83;100039.41;6216086;23;20054;-84
2023/09/16 02:00:36;;;;;;;0.50;0.50;;;;;;;12.65;93.46;100047.63;6216441;23;20020;-85
2023/09/16 02:03:03;;;;;;;0.50;0.50;;;;;;;12.66;94.06;100041.19;6242527;23;20456;-85
2023/09/16 02:05:31;;;;;;;0.43;0.43;;;;;;;12.72;94.29;100047.53;6243014;23;20031;-85
2023/09/16 02:08:05;;;;;;;0.50;0.50;;;;;;;12.72;94.45;100047.53;6215393;23;20028;-85
2023/09/16 02:10:32;;;;;;;0.50;0.50;;;;;;;12.64;94.40;100047.88;6216138;23;20024;-85
2023/09/16 02:13:00;;;;;;;0.50;0.50;;;;;;;12.61;94.43;100049.19;6242716;23;20030;-85
2023/09/16 02:15:28;;;;;;;0.50;0.50;;;;;;;12.61;94.74;100048.31;6243203;23;20027;-85
2023/09/16 02:17:56;;;;;;;0.50;0.50;;;;;;;12.65;95.00;100052.22;6243061;23;20028;-85
2023/09/16 02:20:24;;;;;;;0.50;0.50;;;;;;;12.67;94.90;100047.41;6216259;23;20392;-86
2023/09/16 02:22:52;;;;;;;0.40;0.40;;;;;;;12.67;94.68;100050.13;6216233;23;20487;-85
2023/09/16 02:25:39;;;;;;;0.40;0.40;;;;;;;12.61;94.43;100059.16;6199688;23;20082;-85
2023/09/16 02:28:06;;;;;;;0.40;0.40;;;;;;;12.62;94.57;100055.41;6215709;23;20030;-85
2023/09/16 02:30:33;;;;;;;0.50;0.50;;;;;;;12.54;94.45;100056.56;6243145;23;20042;-85
2023/09/16 02:33:00;;;;;;;0.50;0.50;;;;;;;12.50;94.49;100056.19;6215781;23;20024;-85
2023/09/16 02:35:28;;;;;;;0.50;0.50;;;;;;;12.57;94.57;100059.63;6216584;23;20016;-85
2023/09/16 02:37:57;;;;;;;0.50;0.50;;;;;;;12.59;94.21;100059.41;6216053;23;20032;-86
2023/09/16 02:40:27;;;;;;;0.40;0.40;;;;;;;12.60;94.31;100061.06;6241444;23;20510;-86
2023/09/16 02:42:55;;;;;;;0.50;0.50;;;;;;;12.66;94.25;100059.28;6243220;23;20023;-85
2023/09/16 02:45:22;;;;;;;0.50;0.50;;;;;;;12.63;93.90;100062.47;6243761;23;20066;-85
2023/09/16 02:47:50;;;;;;;0.50;0.50;;;;;;;12.56;93.94;100057.16;6243479;23;20077;-86
2023/09/16 02:50:18;;;;;;;0.50;0.50;;;;;;;12.51;94.03;100065.97;6215651;23;20024;-84
2023/09/16 02:52:46;;;;;;;0.50;0.50;;;;;;;12.46;94.50;100079.38;6216509;23;20085;-86
2023/09/16 02:55:16;;;;;;;0.47;0.47;;;;;;;12.46;94.48;100079.38;6216294;23;20020;-86
2023/09/16 02:57:43;;;;;;;0.50;0.50;;;;;;;12.46;94.64;100075.88;6270088;22;20138;-85
2023/09/16 03:00:12;;;;;;;0.50;0.50;;;;;;;12.49;94.86;100076.22;6273693;22;20024;-86
2023/09/16 03:02:39;;;;;;;0.50;0.50;;;;;;;12.51;95.04;100076.81;6246748;22;20020;-86
2023/09/16 03:05:06;;;;;;;0.50;0.50;;;;;;;12.52;94.99;100073.03;6273456;22;20027;-85
2023/09/16 03:07:34;;;;;;;0.43;0.43;;;;;;;12.51;95.21;100074.09;6274021;22;20026;-86
2023/09/16 03:10:01;;;;;;;0.50;0.50;;;;;;;12.46;95.67;100079.38;6246532;22;20020;-85
2023/09/16 03:12:32;;;;;;;0.50;0.50;;;;;;;12.46;95.86;100073.97;6247343;22;20034;-85
2023/09/16 03:14:59;;;;;;;0.50;0.50;;;;;;;12.49;95.83;100086.22;6245899;22;20020;-85
2023/09/16 03:17:26;;;;;;;0.50;0.50;;;;;;;12.48;95.89;100093.53;6273468;22;20024;-86
2023/09/16 03:19:56;;;;;;;0.50;0.50;;;;;;;12.38;96.13;100084.28;6224208;22;20031;-85
2023/09/16 03:22:23;;;;;;;0.50;0.50;;;;;;;12.36;96.52;100093.47;6249314;22;20020;-85
2023/09/16 03:24:56;;;;;;;0.50;0.50;;;;;;;12.37;96.67;100094.28;6248723;22;20023;-85
2023/09/16 03:27:26;;;;;;;0.50;0.50;;;;;;;12.37;96.65;100105.13;6248664;22;20362;-86
2023/09/16 03:29:53;;;;;;;0.50;0.50;;;;;;;12.36;96.63;100098.06;6275110;22;20024;-84
2023/09/16 03:32:27;;;;;;;0.50;0.50;;;;;;;12.35;96.83;100099.94;6275178;22;20030;-85
2023/09/16 03:34:54;;;;;;;0.50;0.50;;;;;;;12.33;97.01;100099.34;6224123;22;20104;-86
2023/09/16 03:37:22;;;;;;;0.40;0.40;;;;;;;12.31;96.76;100101.47;6248548;22;20016;-85
2023/09/16 03:39:57;;;;;;;0.50;0.50;;;;;;;12.26;97.06;100114.84;6248844;22;20027;-85
2023/09/16 03:42:28;;;;;;;0.50;0.50;;;;;;;12.19;97.20;100113.28;6250140;22;20027;-85
2023/09/16 03:44:55;;;;;;;0.50;0.50;;;;;;;12.17;97.50;100110.78;6249754;22;20020;-85
2023/09/16 03:47:24;;;;;;;0.50;0.50;;;;;;;12.17;97.59;100110.78;6249584;22;20473;-85
2023/09/16 03:49:52;;;;;;;0.50;0.50;;;;;;;12.22;97.53;100110.13;6249099;22;20034;-83
2023/09/16 03:52:19;;;;;;;0.50;0.50;;;;;;;12.24;96.66;100111.53;6250007;22;20024;-85
2023/09/16 03:54:46;;;;;;;0.40;0.40;;;;;;;12.25;96.75;100115.06;6277482;22;20023;-85
2023/09/16 03:57:14;;;;;;;0.40;0.40;;;;;;;12.29;96.19;100106.28;6249821;22;20034;-85
2023/09/16 03:59:41;;;;;;;0.40;0.40;;;;;;;12.30;95.64;100116.03;6249251;22;20019;-86
2023/09/16 04:02:09;;;;;;;0.50;0.50;;;;;;;12.36;95.34;100119.72;6241743;23;20020;-86
2023/09/16 04:04:36;;;;;;;0.50;0.50;;;;;;;12.41;94.99;100117.16;6242820;23;20597;-86
2023/09/16 04:07:03;;;;;;;0.50;0.50;;;;;;;12.40;94.36;100123.59;6241909;23;20062;-86
2023/09/16 04:09:33;;;;;;;0.47;0.47;;;;;;;12.44;94.15;100119.41;6215975;23;20111;-87
2023/09/16 04:12:00;;;;;;;0.40;0.40;;;;;;;12.54;93.91;100127.78;6241282;23;20080;-86
2023/09/16 04:14:29;;;;;;;0.50;0.50;;;;;;;12.56;93.63;100133.81;6215966;23;20052;-86
2023/09/16 04:17:04;;;;;;;0.50;0.50;;;;;;;12.67;92.97;100140.31;6216395;23;20020;-86
2023/09/16 04:19:35;;;;;;;0.50;0.50;;;;;;;12.56;92.91;100117.56;6217260;23;20024;-86
2023/09/16 04:22:05;;;;;;;0.50;0.50;;;;;;;12.66;92.51;100141.38;6215640;23;20024;-86
2023/09/16 04:24:32;;;;;;;0.50;0.50;;;;;;;12.66;92.27;100140.53;6190456;23;20024;-86
2023/09/16 04:27:00;;;;;;;0.50;0.50;;;;;;;12.63;92.38;100146.41;6215243;23;20046;-86
2023/09/16 04:29:29;;;;;;;0.50;0.50;;;;;;;12.61;92.25;100156.66;6215403;23;20024;-86
2023/09/16 04:32:03;;;;;;;0.50;0.50;;;;;;;12.56;92.19;100144.66;6215154;23;20031;-85
2023/09/16 04:34:32;;;;;;;0.40;0.40;;;;;;;12.60;91.74;100157.72;6247790;22;20069;-85
2023/09/16 04:37:08;;;;;;;0.45;0.45;;;;;;;12.40;91.61;100139.03;6222472;22;20065;-86
2023/09/16 04:39:35;;;;;;;0.50;0.50;;;;;;;12.40;91.51;100161.50;6247373;22;20504;-86
2023/09/16 04:42:08;;;;;;;0.50;0.50;;;;;;;12.36;91.90;100152.22;6274522;22;20351;-86
2023/09/16 04:44:48;;;;;;;0.47;0.47;;;;;;;12.46;92.11;100165.22;6221712;22;20089;-86
2023/09/16 04:47:21;;;;;;;0.50;0.50;;;;;;;12.44;91.99;100157.31;6221350;22;20351;-87
2023/09/16 04:50:10;;;;;;;0.50;0.50;;;;;;;12.49;91.93;100165.56;6224301;22;20027;-87
2023/09/16 04:52:43;;;;;;;0.50;0.50;;;;;;;12.55;91.80;100161.09;6223074;22;20077;-86
2023/09/16 04:55:12;;;;;;;;;;;;;;;12.68;91.40;100176.34;6197571;22;20020;-86
2023/09/16 04:57:43;;;;;;;0.50;0.50;;;;;;;12.54;91.40;100156.75;6247015;22;20409;-85
2023/09/16 05:00:13;;;;;;;0.50;0.50;;;;;;;12.69;91.02;100180.72;6221384;22;20019;-86
2023/09/16 05:02:50;;;;;;;0.50;0.50;;;;;;;12.61;90.84;100173.75;6225314;22;20398;-85
2023/09/16 05:05:17;;;;;;;0.50;0.50;;;;;;;12.62;90.64;100167.25;6273978;22;20534;-85
2023/09/16 05:07:49;;;;;;;0.50;0.50;;;;;;;12.65;90.28;100184.94;6247268;22;20395;-86
2023/09/16 05:10:19;;;;;;;0.50;0.50;;;;;;;12.66;90.21;100181.16;6197040;22;20023;-86
2023/09/16 05:12:46;;;;;;;0.40;0.40;;;;;;;12.58;90.07;100176.88;6247067;22;20024;-87
2023/09/16 05:15:13;;;;;;;0.50;0.50;;;;;;;12.51;90.24;100187.81;6273674;22;20023;-86
2023/09/16 05:17:47;;;;;;;0.50;0.50;;;;;;;12.37;90.94;100183.63;6274533;22;20023;-87
2023/09/16 05:20:23;;;;;;;0.50;0.50;;;;;;;12.29;91.22;100183.94;6222418;22;20383;-86
2023/09/16 05:22:53;;;;;;;0.50;0.50;;;;;;;12.25;91.06;100182.72;6245323;22;20024;-86
2023/09/16 05:25:24;;;;;;;0.50;0.50;;;;;;;12.14;90.97;100179.72;6244245;22;20024;-86
2023/09/16 05:27:51;;;;;;;0.50;0.50;;;;;;;12.15;91.26;100185.97;6218484;22;20038;-86
2023/09/16 05:30:19;;;;;;;0.50;0.50;;;;;;;12.17;91.43;100180.34;6220896;22;20077;-84
2023/09/16 05:32:47;;;;;;;0.50;0.50;;;;;;;12.14;91.22;100195.97;6218271;22;20037;-86
2023/09/16 05:35:15;;;;;;;0.50;0.50;;;;;;;12.13;90.99;100188.91;6243846;22;20073;-88
2023/09/16 05:37:47;;;;;;;0.50;0.50;;;;;;;12.13;91.32;100197.03;6242470;22;20519;-84
2023/09/16 05:40:22;;;;;;;0.50;0.50;;;;;;;12.21;91.54;100204.03;6242326;22;20050;-86
2023/09/16 05:42:50;;;;;;;0.50;0.50;;;;;;;12.24;91.54;100216.28;6192935;22;20024;-89
2023/09/16 05:45:19;;;;;;;0.50;0.50;;;;;;;12.34;90.99;100216.56;6217021;22;20519;-81
2023/09/16 05:47:50;;;;;;;0.50;0.50;;;;;;;12.31;90.39;100217.84;6219659;22;20347;-86
2023/09/16 05:50:39;;;;;;;0.50;0.50;;;;;;;12.17;90.54;100210.09;6195605;22;20051;-87
2023/09/16 05:53:10;;;;;;;0.50;0.50;;;;;;;12.31;91.04;100227.84;6218852;22;20050;-87
2023/09/16 05:55:39;;;;;;;0.60;0.60;;;;;;;12.27;90.25;100221.22;6243224;22;20020;-84
2023/09/16 05:58:11;;;;;;;0.60;0.60;;;;;;;12.22;90.34;100212.97;6241548;22;20039;-81
2023/09/16 06:00:54;;;;;;;0.50;0.50;;;;;;;12.10;90.02;100221.84;6243211;22;20023;-82
2023/09/16 06:03:23;;;;;;;0.50;0.50;;;;;;;12.10;90.20;100221.00;6217809;22;20019;-86
2023/09/16 06:06:01;;;;;;;0.60;0.60;;;;;;;12.17;89.74;100237.16;6217851;22;20743;-87
2023/09/16 06:08:30;;;;;;;0.60;0.60;;;;;;;12.19;89.81;100235.06;6242722;22;20020;-87
2023/09/16 06:10:57;;;;;;;0.43;0.43;;;;;;;12.25;89.50;100242.28;6257370;22;20027;-86
2023/09/16 06:13:26;;;;;;;0.50;0.50;;;;;;;12.23;89.34;100238.97;6241513;22;20807;-84
2023/09/16 06:16:11;;;;;;;0.52;0.52;;;;;;;12.38;88.79;100242.13;6242340;22;20023;-85
2023/09/16 06:18:39;;;;;;;0.50;0.50;;;;;;;12.36;87.92;100231.53;6217117;22;20023;-85
2023/09/16 06:21:25;;;;;;;0.50;0.50;;;;;;;12.34;87.29;100232.81;6243166;22;20102;-87
2023/09/16 06:23:53;;;;;;;0.60;0.60;;;;;;;12.59;86.79;100257.09;6241416;22;20020;-85
2023/09/16 06:26:22;;;;;;;0.60;0.60;;;;;;;12.52;86.32;100240.91;6217314;22;20081;-87
2023/09/16 06:28:49;;;;;;;0.50;0.50;;;;;;;12.58;85.83;100255.41;6242606;22;20079;-85
2023/09/16 06:31:17;;;;;;;0.60;0.60;;;;;;;12.45;85.57;100259.13;6216909;22;20635;-84
2023/09/16 06:33:49;;;;;;;0.50;0.50;;;;;;;12.51;85.89;100273.66;6216482;22;20086;-86
2023/09/16 06:36:18;;;;;;;0.60;0.60;;;;;;;12.57;85.25;100275.44;6241557;22;20089;-87
2023/09/16 06:38:45;;;;;;;0.50;0.50;;;;;;;12.56;84.87;100276.50;6217023;22;20028;-87
2023/09/16 06:41:14;;;;;;;0.40;0.40;;;;;;;12.48;85.26;100272.22;6247798;22;20046;-89
2023/09/16 06:43:41;;;;;;;0.50;0.50;;;;;;;12.54;85.06;100282.13;6224174;22;20035;-90
2023/09/16 06:46:08;;;;;;;0.52;0.52;;;;;;;12.54;85.26;100290.25;6248915;22;20020;-85
2023/09/16 06:48:37;;;;;;;0.50;0.50;;;;;;;12.54;84.81;100287.56;6249303;22;20328;-86
2023/09/16 06:51:05;;;;;;;0.50;0.50;;;;;;;12.48;84.70;100280.34;6247335;22;20398;-85
2023/09/16 06:53:33;;;;;;;0.50;0.50;;;;;;;12.39;84.96;100284.41;6248906;22;20019;-86
2023/09/16 06:56:00;;;;;;;0.50;0.50;;;;;;;12.33;85.33;100294.25;6275665;22;20027;-85
2023/09/16 06:58:30;;;;;;;0.50;0.50;;;;;;;12.24;85.76;100287.47;6251175;22;20034;-86
2023/09/16 07:01:13;;;;;;;0.50;0.50;;;;;;;12.31;86.27;100292.81;6251057;22;20034;-85
2023/09/16 07:03:41;;;;;;;0.50;0.50;;;;;;;12.22;86.11;100267.09;6202226;22;20028;-86
2023/09/16 07:06:08;;;;;;;0.50;0.50;;;;;;;12.45;85.87;100297.03;6277177;22;20019;-86
2023/09/16 07:08:35;;;;;;;0.50;0.50;;;;;;;12.58;85.21;100296.91;6277038;22;20031;-84
2023/09/16 07:11:02;;;;;;;0.50;0.50;;;;;;;12.67;84.41;100299.28;6275713;22;20030;-85
2023/09/16 07:13:29;;;;;;;0.50;0.50;;;;;;;12.66;83.59;100286.78;6275944;22;20058;-86
2023/09/16 07:15:57;;;;;;;0.50;0.50;;;;;;;12.79;82.59;100292.06;6275350;22;20023;-86
2023/09/16 07:18:25;;;;;;;0.50;0.50;;;;;;;12.79;81.51;100306.44;6275411;22;20513;-85
2023/09/16 07:20:53;;;;;;;0.60;0.60;;;;;;;12.91;80.89;100297.53;6223163;22;20490;-86
2023/09/16 07:23:21;;;;;;;0.57;0.57;;;;;;;12.96;79.26;100301.22;6275205;22;20020;-86
2023/09/16 07:25:56;;;;;;;0.60;0.60;;;;;;;13.08;78.92;100281.47;6248220;22;20034;-86
2023/09/16 07:31:49;;;;;;;;;;;;;;;13.21;78.88;100319.22;6275874;22;20097;-85
2023/09/16 07:34:19;;;;;;;0.47;0.47;;;;;;;13.15;78.86;100320.16;6274816;22;19980;-86
2023/09/16 07:36:46;;;;;;;0.50;0.50;;;;;;;13.01;78.94;100312.19;6275198;22;20122;-85
2023/09/16 07:39:13;;;;;;;0.50;0.50;;;;;;;13.08;79.68;100313.97;6275180;22;20035;-85
2023/09/16 07:41:41;;;;;;;0.50;0.50;;;;;;;13.27;79.28;100325.63;6247360;22;20023;-85
2023/09/16 07:44:09;;;;;;;0.47;0.47;;;;;;;13.41;78.38;100306.22;6275264;22;20031;-85
2023/09/16 07:46:36;;;;;;;0.50;0.50;;;;;;;13.37;77.50;100328.63;6247601;22;20023;-85
2023/09/16 07:49:04;;;;;;;0.50;0.50;;;;;;;13.08;78.74;100314.81;6273782;22;20402;-86
2023/09/16 07:51:32;;;;;;;0.60;0.60;;;;;;;13.14;78.80;100327.47;6197757;22;20023;-86
2023/09/16 07:54:00;;;;;;;0.50;0.50;;;;;;;13.11;78.53;100329.78;6249014;22;20102;-85
2023/09/16 07:56:28;;;;;;;0.50;0.50;;;;;;;13.18;78.37;100334.06;6247253;22;20024;-84
2023/09/16 07:58:55;;;;;;;0.50;0.50;;;;;;;13.36;77.74;100335.09;6273578;22;20024;-85
2023/09/16 08:01:23;;;;;;;0.50;0.50;;;;;;;13.69;76.62;100341.91;6273945;22;20080;-86
2023/09/16 08:03:50;;;;;;;0.50;0.50;;;;;;;14.05;75.02;100339.03;6274567;22;20098;-86
2023/09/16 08:06:23;;;;;;;0.50;0.50;;;;;;;14.21;73.68;100334.78;6275800;22;20039;-85
2023/09/16 08:08:50;;;;;;;0.50;0.50;;;;;;;14.28;72.42;100343.66;6276646;22;20024;-86
2023/09/16 08:11:18;;;;;;;0.50;0.50;;;;;;;14.15;71.82;100348.47;6249622;22;20129;-84
2023/09/16 08:13:46;;;;;;;0.50;0.50;;;;;;;14.14;71.32;100339.50;6247347;22;20022;-89
2023/09/16 08:16:13;;;;;;;0.50;0.50;;;;;;;14.11;71.17;100348.13;6276575;22;20023;-86
2023/09/16 08:18:40;;;;;;;0.50;0.50;;;;;;;13.96;71.22;100340.44;6276202;22;20019;-85
2023/09/16 08:21:11;;;;;;;0.50;0.50;;;;;;;13.94;71.26;100339.03;6278482;22;20046;-89
2023/09/16 08:23:43;;;;;;;0.47;0.47;;;;;;;13.79;71.75;100345.72;6277989;22;20019;-88
2023/09/16 08:26:15;;;;;;;0.50;0.50;;;;;;;13.82;72.07;100352.56;6226934;22;20107;-86
2023/09/16 08:28:46;;;;;;;0.50;0.50;;;;;;;13.70;72.09;100349.84;6248644;22;20023;-88
2023/09/16 08:31:14;;;;;;;0.52;0.52;;;;;;;13.82;71.70;100355.28;6253125;22;20086;-89
2023/09/16 08:33:44;;;;;;;0.50;0.50;;;;;;;13.99;71.39;100358.16;6251835;22;20024;-88
2023/09/16 08:36:13;;;;;;;0.50;0.50;;;;;;;14.14;71.12;100353.09;6222477;22;20046;-87
2023/09/16 08:38:40;;;;;;;0.50;0.50;;;;;;;14.29;70.26;100337.16;6247235;22;20455;-87
2023/09/16 08:41:28;;;;;;;0.50;0.50;;;;;;;14.55;69.33;100367.63;6274504;22;20024;-87
2023/09/16 08:43:59;;;;;;;0.60;0.60;;;;;;;14.39;68.78;100362.91;6249075;22;20032;-87
2023/09/16 08:46:29;;;;;;;0.50;0.50;;;;;;;14.34;68.84;100379.88;6223902;22;20024;-86
2023/09/16 08:49:00;;;;;;;0.50;0.50;;;;;;;14.41;68.91;100379.78;6276974;22;20020;-87
2023/09/16 08:51:38;;;;;;;0.50;0.50;;;;;;;14.18;69.30;100362.41;6250843;22;20026;-86
2023/09/16 08:54:13;;;;;;;0.50;0.50;;;;;;;14.19;68.43;100365.97;6202399;22;20030;-87
2023/09/16 08:56:42;;;;;;;0.50;0.50;;;;;;;14.08;67.71;100367.59;6277311;22;20027;-86
2023/09/16 08:59:13;;;;;;;0.50;0.50;;;;;;;13.99;68.24;100358.16;6162841;23;20036;-86
2023/09/16 09:01:44;;;;;;;0.60;0.60;;;;;;;14.29;68.47;100369.72;6188292;23;20020;-85
2023/09/16 09:04:16;;;;;;;0.60;0.60;;;;;;;14.57;67.65;100364.69;6164459;23;20079;-85
2023/09/16 09:06:47;;;;;;;0.50;0.50;;;;;;;14.64;66.80;100365.41;6186290;23;20032;-87
2023/09/16 09:09:40;;;;;;;0.45;0.45;;;;;;;14.53;66.53;100372.47;6190951;23;20488;-86
2023/09/16 09:12:08;;;;;;;0.50;0.50;;;;;;;14.31;67.47;100378.47;6186124;23;20026;-86
2023/09/16 09:14:36;;;;;;;0.50;0.50;;;;;;;14.28;67.52;100384.38;6185768;23;20048;-86
2023/09/16 09:17:03;;;;;;;0.50;0.50;;;;;;;14.04;67.75;100380.81;6185594;23;20029;-86
2023/09/16 09:19:34;;;;;;;0.50;0.50;;;;;;;13.76;68.18;100375.22;6162776;23;20140;-86
2023/09/16 09:22:02;;;;;;;0.57;0.57;;;;;;;13.53;69.03;100387.63;6213609;23;20114;-86
2023/09/16 09:24:29;;;;;;;0.50;0.50;;;;;;;13.48;69.33;100383.97;6211454;23;20084;-86
2023/09/16 09:26:59;;;;;;;0.60;0.60;;;;;;;13.35;68.77;100384.97;6114727;23;20107;-86
2023/09/16 09:29:26;;;;;;;0.50;0.50;;;;;;;13.32;68.88;100375.41;6145542;22;20024;-86
2023/09/16 09:31:54;;;;;;;0.57;0.57;;;;;;;13.64;68.53;100388.72;6274833;22;20042;-86
2023/09/16 09:34:27;;;;;;;0.60;0.60;;;;;;;13.82;66.97;100395.97;6247848;22;20046;-87
2023/09/16 09:36:54;;;;;;;0.50;0.50;;;;;;;13.72;67.17;100385.69;6172227;22;20024;-87
2023/09/16 09:39:24;;;;;;;0.50;0.50;;;;;;;13.83;67.54;100400.34;6183981;23;20099;-86
2023/09/16 09:41:53;;;;;;;0.50;0.50;;;;;;;13.70;67.06;100406.81;6209355;23;20021;-85
2023/09/16 09:44:23;;;;;;;0.60;0.60;;;;;;;13.77;66.72;100410.22;6184068;23;20067;-86
2023/09/16 09:46:50;;;;;;;0.60;0.60;;;;;;;13.77;66.85;100398.56;6211308;23;20024;-85
2023/09/16 09:49:22;;;;;;;0.50;0.50;;;;;;;13.91;66.72;100410.06;6185669;23;20107;-87
2023/09/16 09:51:49;;;;;;;0.50;0.50;;;;;;;14.07;66.34;100406.66;6209406;23;20036;-86
2023/09/16 09:54:17;;;;;;;0.50;0.50;;;;;;;14.16;66.44;100413.41;6160067;23;20373;-88
2023/09/16 09:56:46;;;;;;;0.60;0.60;;;;;;;14.18;65.31;100415.88;6215656;23;20396;-88
2023/09/16 09:59:15;;;;;;;0.50;0.50;;;;;;;13.80;65.55;100403.50;6195692;23;20155;-87
2023/09/16 10:01:45;;;;;;;0.50;0.50;;;;;;;13.71;65.82;100405.75;6127962;23;20018;-88
2023/09/16 10:04:13;;;;;;;0.50;0.50;;;;;;;13.67;65.85;100404.53;6104026;23;20026;-90
2023/09/16 10:06:41;;;;;;;0.60;0.60;;;;;;;13.88;65.75;100409.44;6131009;23;20099;-87
2023/09/16 10:09:11;;;;;;;0.50;0.50;;;;;;;14.03;65.43;100425.31;6131254;23;20030;-89
2023/09/16 10:11:43;;;;;;;0.50;0.50;;;;;;;13.95;65.96;100427.50;6123042;23;20032;-88
2023/09/16 10:14:24;;;;;;;0.40;0.40;;;;;;;13.85;66.03;100409.91;6213282;23;20031;-89
2023/09/16 10:16:58;;;;;;;0.50;0.50;;;;;;;13.79;65.72;100416.25;6200600;23;20017;-87
2023/09/16 10:19:30;;;;;;;0.60;0.60;;;;;;;13.76;66.26;100408.59;6231034;23;20047;-89
2023/09/16 10:21:57;;;;;;;0.60;0.60;;;;;;;13.92;66.02;100417.13;6175907;23;20079;-89
2023/09/16 10:24:34;;;;;;;0.50;0.50;;;;;;;13.98;64.97;100416.22;6194945;23;20352;-85
2023/09/16 10:27:08;;;;;;;0.50;0.50;;;;;;;14.07;64.65;100425.66;6164005;23;20484;-86
2023/09/16 10:29:37;;;;;;;0.60;0.60;;;;;;;14.20;64.02;100420.00;6189747;23;20021;-84
2023/09/16 10:32:04;;;;;;;0.50;0.50;;;;;;;14.35;62.65;100430.41;6188600;23;20490;-83
2023/09/16 10:34:33;;;;;;;0.50;0.50;;;;;;;14.43;63.26;100434.66;6186312;23;20028;-84
2023/09/16 10:37:00;;;;;;;0.50;0.50;;;;;;;14.55;63.09;100435.53;6190626;23;20024;-88
2023/09/16 10:39:35;;;;;;;0.50;0.50;;;;;;;14.68;62.66;100437.19;6177513;23;20021;-90
2023/09/16 10:42:07;;;;;;;0.50;0.50;;;;;;;14.71;62.60;100436.72;6188110;23;20052;-85
2023/09/16 10:45:10;;;;;;;0.55;0.55;;;;;;;14.45;62.20;100435.28;6218997;23;20020;-88
2023/09/16 10:47:39;;;;;;;0.50;0.50;;;;;;;14.36;63.17;100436.69;6191634;23;20478;-88
2023/09/16 10:50:09;;;;;;;0.50;0.50;;;;;;;14.50;62.49;100436.22;6192114;23;20430;-89
2023/09/16 10:52:45;;;;;;;0.50;0.50;;;;;;;14.64;62.33;100436.84;6223256;23;20107;-88
2023/09/16 10:55:14;;;;;;;0.50;0.50;;;;;;;14.67;61.16;100447.25;6193191;23;20076;-90
2023/09/16 10:58:02;;;;;;;0.60;0.60;;;;;;;14.43;60.99;100446.38;6069088;23;20026;-87
2023/09/16 11:00:49;;;;;;;0.60;0.60;;;;;;;14.76;61.33;100427.84;6062967;23;20510;-88
2023/09/16 11:03:18;;;;;;;0.50;0.50;;;;;;;14.78;60.50;100423.03;6068962;23;20019;-89
2023/09/16 11:05:45;;;;;;;0.50;0.50;;;;;;;14.75;60.18;100432.47;6044501;23;20022;-87
2023/09/16 11:08:14;;;;;;;0.50;0.50;;;;;;;14.62;61.03;100444.41;6068770;23;20052;-86
2023/09/16 11:10:42;;;;;;;0.50;0.50;;;;;;;14.71;61.26;100442.16;6069186;23;20027;-86
2023/09/16 11:13:13;;;;;;;0.50;0.50;;;;;;;14.65;60.67;100443.09;6077799;23;20027;-90
2023/09/16 11:16:05;;;;;;;0.50;0.50;;;;;;;14.61;60.74;100436.47;6024647;23;20534;-85
2023/09/16 11:18:41;;;;;;;0.50;0.50;;;;;;;14.68;60.46;100429.88;6037739;23;20023;-84
2023/09/16 11:21:11;;;;;;;0.50;0.50;;;;;;;14.75;60.57;100443.34;6063438;23;20126;-87
2023/09/16 11:23:39;;;;;;;0.40;0.40;;;;;;;14.71;61.17;100434.00;6065386;23;20066;-90
2023/09/16 11:26:35;;;;;;;0.50;0.50;;;;;;;14.80;61.19;100445.34;6077112;23;20026;-87
2023/09/16 11:29:19;;;;;;;0.40;0.40;;;;;;;14.86;61.05;100441.69;6085684;23;20039;-84
2023/09/16 11:31:50;;;;;;;0.50;0.50;;;;;;;14.84;60.74;100441.09;6075653;23;20030;-88
2023/09/16 11:34:29;;;;;;;0.45;0.45;;;;;;;14.84;60.13;100441.94;6070708;23;20022;-89
2023/09/16 11:37:11;;;;;;;0.50;0.50;;;;;;;14.60;59.53;100448.44;6105667;23;20027;-90
2023/09/16 11:40:03;;;;;;;0.45;0.45;;;;;;;14.36;60.82;100436.69;6182369;23;20024;-91
2023/09/16 11:42:32;;;;;;;0.50;0.50;;;;;;;14.55;60.13;100451.84;6200387;23;20076;-89
2023/09/16 11:45:01;;;;;;;0.60;0.60;;;;;;;14.50;60.42;100446.25;6195595;23;20080;-88